sensor_id;sensor_type;location;lat;lon;timestamp;pressure;altitude;pressure_sealevel;temperature;humidity
2339;BME280;1180;51.438;6.978;2023-03-25T00:00:08;99044.06;;;12.49;82.77
2339;BME280;1180;51.438;6.978;2023-03-25T00:02:50;99039.69;;;12.39;83.78
2339;BME280;1180;51.438;6.978;2023-03-25T00:05:18;99039.00;;;12.37;84.18
2339;BME280;1180;51.438;6.978;2023-03-25T00:07:45;99045.63;;;12.30;83.83
2339;BME280;1180;51.438;6.978;2023-03-25T00:10:13;99044.28;;;12.26;83.85
2339;BME280;1180;51.438;6.978;2023-03-25T00:12:38;99049.81;;;12.21;84.18
2339;BME280;1180;51.438;6.978;2023-03-25T00:15:08;99045.34;;;12.13;85.08
2339;BME280;1180;51.438;6.978;2023-03-25T00:17:35;99042.88;;;12.12;85.50
2339;BME280;1180;51.438;6.978;2023-03-25T00:20:03;99051.84;;;12.18;85.62
2339;BME280;1180;51.438;6.978;2023-03-25T00:22:34;99061.25;;;12.07;85.50
2339;BME280;1180;51.438;6.978;2023-03-25T00:25:06;99042.34;;;12.18;84.73
2339;BME280;1180;51.438;6.978;2023-03-25T00:27:32;99040.31;;;12.12;85.02
2339;BME280;1180;51.438;6.978;2023-03-25T00:29:57;99044.47;;;12.03;86.17
2339;BME280;1180;51.438;6.978;2023-03-25T00:32:22;99044.91;;;12.08;85.62
2339;BME280;1180;51.438;6.978;2023-03-25T00:34:48;99042.06;;;12.02;85.64
2339;BME280;1180;51.438;6.978;2023-03-25T00:37:14;99037.19;;;12.08;85.60
2339;BME280;1180;51.438;6.978;2023-03-25T00:39:45;99031.38;;;12.16;84.86
2339;BME280;1180;51.438;6.978;2023-03-25T00:42:14;99032.22;;;12.17;84.62
2339;BME280;1180;51.438;6.978;2023-03-25T00:44:39;99037.06;;;12.10;85.76
2339;BME280;1180;51.438;6.978;2023-03-25T00:47:05;99033.53;;;12.11;85.39
2339;BME280;1180;51.438;6.978;2023-03-25T00:49:30;99029.91;;;12.13;85.12
2339;BME280;1180;51.438;6.978;2023-03-25T00:51:56;99026.50;;;12.13;84.91
2339;BME280;1180;51.438;6.978;2023-03-25T00:54:22;99029.09;;;12.13;85.20
2339;BME280;1180;51.438;6.978;2023-03-25T00:56:48;99025.31;;;12.17;85.34
2339;BME280;1180;51.438;6.978;2023-03-25T00:59:14;99027.41;;;12.02;85.63
2339;BME280;1180;51.438;6.978;2023-03-25T01:01:40;99023.47;;;11.98;86.31
2339;BME280;1180;51.438;6.978;2023-03-25T01:04:06;99019.50;;;12.25;84.97
2339;BME280;1180;51.438;6.978;2023-03-25T01:06:40;99030.19;;;12.20;84.99
2339;BME280;1180;51.438;6.978;2023-03-25T01:09:11;99022.19;;;12.23;85.75
2339;BME280;1180;51.438;6.978;2023-03-25T01:11:39;99031.72;;;12.33;85.34
2339;BME280;1180;51.438;6.978;2023-03-25T01:14:08;99023.72;;;12.36;84.84
2339;BME280;1180;51.438;6.978;2023-03-25T01:16:35;99020.84;;;12.19;84.90
2339;BME280;1180;51.438;6.978;2023-03-25T01:19:01;99020.56;;;12.12;85.34
2339;BME280;1180;51.438;6.978;2023-03-25T01:21:26;99019.88;;;12.20;84.70
2339;BME280;1180;51.438;6.978;2023-03-25T01:23:52;99010.59;;;11.98;84.71
2339;BME280;1180;51.438;6.978;2023-03-25T01:26:17;99011.44;;;11.98;83.75
2339;BME280;1180;51.438;6.978;2023-03-25T01:28:43;99018.69;;;12.15;83.38
2339;BME280;1180;51.438;6.978;2023-03-25T01:31:11;99016.34;;;12.02;83.49
2339;BME280;1180;51.438;6.978;2023-03-25T01:33:37;99004.50;;;11.99;84.43
2339;BME280;1180;51.438;6.978;2023-03-25T01:36:03;99011.28;;;12.00;84.06
2339;BME280;1180;51.438;6.978;2023-03-25T01:38:33;99010.69;;;12.18;83.23
2339;BME280;1180;51.438;6.978;2023-03-25T01:40:58;99005.81;;;12.15;82.95
2339;BME280;1180;51.438;6.978;2023-03-25T01:43:23;99002.13;;;12.07;83.34
2339;BME280;1180;51.438;6.978;2023-03-25T01:45:49;99004.03;;;12.15;82.66
2339;BME280;1180;51.438;6.978;2023-03-25T01:48:20;99000.69;;;12.15;82.52
2339;BME280;1180;51.438;6.978;2023-03-25T01:51:13;98999.69;;;12.06;82.09
2339;BME280;1180;51.438;6.978;2023-03-25T01:53:41;98994.59;;;12.16;80.88
2339;BME280;1180;51.438;6.978;2023-03-25T01:56:08;98993.91;;;12.23;80.35
2339;BME280;1180;51.438;6.978;2023-03-25T01:58:37;98996.56;;;12.02;80.50
2339;BME280;1180;51.438;6.978;2023-03-25T02:01:03;99003.97;;;11.95;81.05
2339;BME280;1180;51.438;6.978;2023-03-25T02:03:29;99003.16;;;11.95;80.61
2339;BME280;1180;51.438;6.978;2023-03-25T02:06:04;99003.53;;;11.90;81.37
2339;BME280;1180;51.438;6.978;2023-03-25T02:08:34;99001.66;;;11.92;80.94
2339;BME280;1180;51.438;6.978;2023-03-25T02:11:02;98996.50;;;11.92;80.57
2339;BME280;1180;51.438;6.978;2023-03-25T02:13:28;99008.47;;;12.03;80.44
2339;BME280;1180;51.438;6.978;2023-03-25T02:18:45;99015.00;;;12.17;78.61
2339;BME280;1180;51.438;6.978;2023-03-25T02:30:13;99020.78;;;11.99;79.86
2339;BME280;1180;51.438;6.978;2023-03-25T02:43:51;99020.66;;;12.01;80.00
2339;BME280;1180;51.438;6.978;2023-03-25T02:46:18;99017.06;;;12.13;79.91
2339;BME280;1180;51.438;6.978;2023-03-25T02:48:56;99013.09;;;12.09;79.47
2339;BME280;1180;51.438;6.978;2023-03-25T02:51:27;99006.63;;;12.15;78.93
2339;BME280;1180;51.438;6.978;2023-03-25T02:53:55;99009.13;;;11.95;80.05
2339;BME280;1180;51.438;6.978;2023-03-25T02:56:24;99007.06;;;11.89;80.21
2339;BME280;1180;51.438;6.978;2023-03-25T02:58:52;98999.53;;;11.97;79.84
2339;BME280;1180;51.438;6.978;2023-03-25T03:01:22;99004.75;;;11.86;80.16
2339;BME280;1180;51.438;6.978;2023-03-25T03:03:54;99005.78;;;12.05;79.94
2339;BME280;1180;51.438;6.978;2023-03-25T03:06:21;99010.59;;;11.98;79.31
2339;BME280;1180;51.438;6.978;2023-03-25T03:11:29;99001.50;;;11.84;80.14
2339;BME280;1180;51.438;6.978;2023-03-25T03:14:47;98998.44;;;12.00;79.02
2339;BME280;1180;51.438;6.978;2023-03-25T03:17:16;99003.97;;;11.95;79.40
2339;BME280;1180;51.438;6.978;2023-03-25T03:25:03;98995.13;;;11.88;79.83
2339;BME280;1180;51.438;6.978;2023-03-25T03:27:37;98999.75;;;11.84;80.02
2339;BME280;1180;51.438;6.978;2023-03-25T03:30:35;98999.34;;;11.89;80.19
2339;BME280;1180;51.438;6.978;2023-03-25T03:33:09;98992.00;;;11.75;80.68
2339;BME280;1180;51.438;6.978;2023-03-25T03:35:48;98997.78;;;11.67;81.66
2339;BME280;1180;51.438;6.978;2023-03-25T03:38:18;98994.41;;;11.66;81.36
2339;BME280;1180;51.438;6.978;2023-03-25T03:40:49;98991.53;;;11.60;82.41
2339;BME280;1180;51.438;6.978;2023-03-25T03:43:34;98995.50;;;11.74;82.06
2339;BME280;1180;51.438;6.978;2023-03-25T03:46:05;98995.66;;;11.82;81.68
2339;BME280;1180;51.438;6.978;2023-03-25T03:48:40;98988.09;;;11.80;80.74
2339;BME280;1180;51.438;6.978;2023-03-25T03:53:45;98989.75;;;11.91;81.17
2339;BME280;1180;51.438;6.978;2023-03-25T03:58:52;98999.28;;;11.69;82.52
2339;BME280;1180;51.438;6.978;2023-03-25T04:01:34;99001.22;;;11.77;81.93
2339;BME280;1180;51.438;6.978;2023-03-25T04:04:12;99004.03;;;11.74;82.24
2339;BME280;1180;51.438;6.978;2023-03-25T04:06:55;98997.56;;;11.80;81.67
2339;BME280;1180;51.438;6.978;2023-03-25T04:12:19;98994.25;;;11.68;82.03
2339;BME280;1180;51.438;6.978;2023-03-25T04:14:46;98996.06;;;11.77;81.98
2339;BME280;1180;51.438;6.978;2023-03-25T04:17:11;98989.72;;;11.81;81.64
2339;BME280;1180;51.438;6.978;2023-03-25T04:19:36;98986.91;;;11.84;80.74
2339;BME280;1180;51.438;6.978;2023-03-25T04:22:03;98999.03;;;11.73;81.22
2339;BME280;1180;51.438;6.978;2023-03-25T04:24:29;98995.41;;;11.85;80.58
2339;BME280;1180;51.438;6.978;2023-03-25T04:26:58;99008.66;;;11.80;81.41
2339;BME280;1180;51.438;6.978;2023-03-25T04:29:27;98995.28;;;11.87;81.24
2339;BME280;1180;51.438;6.978;2023-03-25T04:31:53;98998.88;;;11.74;82.61
2339;BME280;1180;51.438;6.978;2023-03-25T04:34:20;99001.28;;;11.66;82.57
2339;BME280;1180;51.438;6.978;2023-03-25T04:36:46;98997.94;;;11.75;82.71
2339;BME280;1180;51.438;6.978;2023-03-25T04:39:14;98999.53;;;11.66;82.66
2339;BME280;1180;51.438;6.978;2023-03-25T04:41:42;98992.00;;;11.44;82.69
2339;BME280;1180;51.438;6.978;2023-03-25T04:44:09;98987.84;;;11.52;83.54
2339;BME280;1180;51.438;6.978;2023-03-25T04:46:35;98987.44;;;11.47;82.70
2339;BME280;1180;51.438;6.978;2023-03-25T04:49:04;98991.47;;;11.50;84.08
2339;BME280;1180;51.438;6.978;2023-03-25T04:51:31;98988.13;;;11.59;82.89
2339;BME280;1180;51.438;6.978;2023-03-25T04:53:57;98991.88;;;11.45;83.52
2339;BME280;1180;51.438;6.978;2023-03-25T04:56:23;98986.03;;;11.43;82.68
2339;BME280;1180;51.438;6.978;2023-03-25T04:58:48;98988.13;;;11.59;83.32
2339;BME280;1180;51.438;6.978;2023-03-25T05:01:26;98995.63;;;11.62;82.62
2339;BME280;1180;51.438;6.978;2023-03-25T05:04:02;98988.47;;;11.45;83.81
2339;BME280;1180;51.438;6.978;2023-03-25T05:06:34;98983.97;;;11.37;84.56
2339;BME280;1180;51.438;6.978;2023-03-25T05:09:01;98987.91;;;11.41;85.11
2339;BME280;1180;51.438;6.978;2023-03-25T05:11:33;98988.91;;;11.50;83.48
2339;BME280;1180;51.438;6.978;2023-03-25T05:13:59;98991.38;;;11.51;83.75
2339;BME280;1180;51.438;6.978;2023-03-25T05:16:24;98989.47;;;11.53;84.05
2339;BME280;1180;51.438;6.978;2023-03-25T05:18:51;98986.97;;;11.63;83.77
2339;BME280;1180;51.438;6.978;2023-03-25T05:21:17;98988.97;;;11.60;83.56
2339;BME280;1180;51.438;6.978;2023-03-25T05:23:43;98988.41;;;11.56;83.90
2339;BME280;1180;51.438;6.978;2023-03-25T05:26:08;98988.91;;;11.50;84.79
2339;BME280;1180;51.438;6.978;2023-03-25T05:28:36;98998.25;;;11.51;84.00
2339;BME280;1180;51.438;6.978;2023-03-25T05:31:03;99001.50;;;11.53;83.81
2339;BME280;1180;51.438;6.978;2023-03-25T05:33:37;99008.25;;;11.54;83.37
2339;BME280;1180;51.438;6.978;2023-03-25T05:36:10;99002.06;;;11.56;83.56
2339;BME280;1180;51.438;6.978;2023-03-25T05:38:36;99003.69;;;11.58;82.47
2339;BME280;1180;51.438;6.978;2023-03-25T05:41:02;99000.91;;;11.39;83.30
2339;BME280;1180;51.438;6.978;2023-03-25T05:43:27;99000.97;;;11.59;82.36
2339;BME280;1180;51.438;6.978;2023-03-25T05:45:53;99003.34;;;11.72;81.96
2339;BME280;1180;51.438;6.978;2023-03-25T05:48:18;99000.50;;;11.65;81.53
2339;BME280;1180;51.438;6.978;2023-03-25T05:50:43;99007.50;;;11.63;81.73
2339;BME280;1180;51.438;6.978;2023-03-25T05:53:13;99012.09;;;11.60;82.81
2339;BME280;1180;51.438;6.978;2023-03-25T05:55:39;99011.41;;;11.58;83.87
2339;BME280;1180;51.438;6.978;2023-03-25T05:58:05;99008.47;;;11.62;83.45
2339;BME280;1180;51.438;6.978;2023-03-25T06:00:31;98996.34;;;11.53;84.13
2339;BME280;1180;51.438;6.978;2023-03-25T06:03:11;98998.25;;;11.51;84.60
2339;BME280;1180;51.438;6.978;2023-03-25T06:05:40;99004.81;;;11.65;83.34
2339;BME280;1180;51.438;6.978;2023-03-25T06:08:05;99006.25;;;11.58;83.07
2339;BME280;1180;51.438;6.978;2023-03-25T06:10:31;99002.06;;;11.56;82.95
2339;BME280;1180;51.438;6.978;2023-03-25T06:12:57;99000.44;;;11.55;83.00
2339;BME280;1180;51.438;6.978;2023-03-25T06:15:22;99006.16;;;11.69;83.51
2339;BME280;1180;51.438;6.978;2023-03-25T06:17:58;99014.34;;;11.84;82.41
2339;BME280;1180;51.438;6.978;2023-03-25T06:20:23;99013.53;;;11.83;81.93
2339;BME280;1180;51.438;6.978;2023-03-25T06:22:48;99015.91;;;11.65;83.34
2339;BME280;1180;51.438;6.978;2023-03-25T06:25:16;99004.38;;;11.60;84.41
2339;BME280;1180;51.438;6.978;2023-03-25T06:27:42;99013.50;;;11.74;85.14
2339;BME280;1180;51.438;6.978;2023-03-25T06:30:12;99004.63;;;11.56;86.02
2339;BME280;1180;51.438;6.978;2023-03-25T06:32:38;99012.09;;;11.60;85.96
2339;BME280;1180;51.438;6.978;2023-03-25T06:35:05;99015.03;;;11.55;86.08
2339;BME280;1180;51.438;6.978;2023-03-25T06:37:32;99006.00;;;11.61;85.98
2339;BME280;1180;51.438;6.978;2023-03-25T06:39:57;99008.19;;;11.65;85.53
2339;BME280;1180;51.438;6.978;2023-03-25T06:42:24;99012.28;;;11.47;86.46
2339;BME280;1180;51.438;6.978;2023-03-25T06:44:50;99023.31;;;11.59;85.89
2339;BME280;1180;51.438;6.978;2023-03-25T06:47:16;99019.41;;;11.64;85.28
2339;BME280;1180;51.438;6.978;2023-03-25T06:49:41;99034.78;;;11.54;85.82
2339;BME280;1180;51.438;6.978;2023-03-25T06:52:06;99029.25;;;11.59;84.99
2339;BME280;1180;51.438;6.978;2023-03-25T06:54:32;99028.31;;;11.60;85.17
2339;BME280;1180;51.438;6.978;2023-03-25T06:56:57;99022.78;;;11.65;85.57
2339;BME280;1180;51.438;6.978;2023-03-25T06:59:22;99020.63;;;11.70;85.50
2339;BME280;1180;51.438;6.978;2023-03-25T07:01:48;99028.41;;;11.80;85.12
2339;BME280;1180;51.438;6.978;2023-03-25T07:04:13;99032.34;;;11.84;85.26
2339;BME280;1180;51.438;6.978;2023-03-25T07:06:38;99035.47;;;11.88;85.69
2339;BME280;1180;51.438;6.978;2023-03-25T07:09:04;99040.72;;;11.86;86.22
2339;BME280;1180;51.438;6.978;2023-03-25T07:11:31;99036.94;;;11.59;87.51
2339;BME280;1180;51.438;6.978;2023-03-25T07:13:57;99033.25;;;11.52;88.47
2339;BME280;1180;51.438;6.978;2023-03-25T07:16:23;99027.66;;;11.37;90.09
2339;BME280;1180;51.438;6.978;2023-03-25T07:18:49;99029.06;;;11.51;88.92
2339;BME280;1180;51.438;6.978;2023-03-25T07:21:16;99031.38;;;11.54;89.42
2339;BME280;1180;51.438;6.978;2023-03-25T07:23:41;99033.63;;;11.68;89.14
2339;BME280;1180;51.438;6.978;2023-03-25T07:26:07;99030.59;;;11.84;88.70
2339;BME280;1180;51.438;6.978;2023-03-25T07:28:32;99042.28;;;11.98;88.00
2339;BME280;1180;51.438;6.978;2023-03-25T07:30:58;99040.31;;;12.12;87.01
2339;BME280;1180;51.438;6.978;2023-03-25T07:33:23;99034.75;;;12.07;87.23
2339;BME280;1180;51.438;6.978;2023-03-25T07:35:48;99041.63;;;12.06;86.28
2339;BME280;1180;51.438;6.978;2023-03-25T07:38:14;99035.69;;;12.06;86.65
2339;BME280;1180;51.438;6.978;2023-03-25T07:40:40;99042.31;;;12.08;86.66
2339;BME280;1180;51.438;6.978;2023-03-25T07:43:05;99044.34;;;12.05;86.86
2339;BME280;1180;51.438;6.978;2023-03-25T07:45:31;99035.31;;;11.89;87.26
2339;BME280;1180;51.438;6.978;2023-03-25T07:47:59;99043.53;;;12.04;87.43
2339;BME280;1180;51.438;6.978;2023-03-25T07:50:25;99044.03;;;11.98;86.17
2339;BME280;1180;51.438;6.978;2023-03-25T07:52:50;99040.47;;;11.89;85.91
2339;BME280;1180;51.438;6.978;2023-03-25T07:55:15;99044.53;;;11.92;85.92
2339;BME280;1180;51.438;6.978;2023-03-25T07:57:41;99041.00;;;11.83;86.55
2339;BME280;1180;51.438;6.978;2023-03-25T08:00:08;99041.00;;;11.83;85.79
2339;BME280;1180;51.438;6.978;2023-03-25T08:02:35;99046.81;;;11.85;85.55
2339;BME280;1180;51.438;6.978;2023-03-25T08:05:00;99046.75;;;11.96;84.91
2339;BME280;1180;51.438;6.978;2023-03-25T08:07:27;99053.06;;;11.92;84.04
2339;BME280;1180;51.438;6.978;2023-03-25T08:09:52;99045.84;;;12.07;83.80
2339;BME280;1180;51.438;6.978;2023-03-25T08:12:18;99055.09;;;12.20;81.71
2339;BME280;1180;51.438;6.978;2023-03-25T08:14:43;99055.06;;;12.10;81.70
2339;BME280;1180;51.438;6.978;2023-03-25T08:17:08;99046.00;;;11.84;82.06
2339;BME280;1180;51.438;6.978;2023-03-25T08:19:34;99058.88;;;12.16;85.73
2339;BME280;1180;51.438;6.978;2023-03-25T08:22:01;99063.94;;;12.37;79.77
2339;BME280;1180;51.438;6.978;2023-03-25T08:24:26;99062.72;;;12.41;79.08
2339;BME280;1180;51.438;6.978;2023-03-25T08:26:54;99065.56;;;12.38;78.12
2339;BME280;1180;51.438;6.978;2023-03-25T08:29:19;99072.03;;;12.32;77.97
2339;BME280;1180;51.438;6.978;2023-03-25T08:31:45;99068.00;;;12.30;78.08
2339;BME280;1180;51.438;6.978;2023-03-25T08:34:11;99066.63;;;12.35;78.20
2339;BME280;1180;51.438;6.978;2023-03-25T08:36:38;99064.66;;;12.49;76.83
2339;BME280;1180;51.438;6.978;2023-03-25T08:39:06;99061.25;;;12.48;76.66
2339;BME280;1180;51.438;6.978;2023-03-25T08:41:38;99061.91;;;12.50;76.18
2339;BME280;1180;51.438;6.978;2023-03-25T08:44:05;99068.53;;;12.33;77.29
2339;BME280;1180;51.438;6.978;2023-03-25T08:46:31;99064.59;;;12.29;77.28
2339;BME280;1180;51.438;6.978;2023-03-25T08:48:56;99060.28;;;12.49;77.00
2339;BME280;1180;51.438;6.978;2023-03-25T08:51:21;99066.78;;;12.34;76.30
2339;BME280;1180;51.438;6.978;2023-03-25T08:53:47;99050.56;;;12.53;76.39
2339;BME280;1180;51.438;6.978;2023-03-25T08:56:12;99057.03;;;12.47;76.21
2339;BME280;1180;51.438;6.978;2023-03-25T08:58:38;99057.34;;;12.54;76.28
2339;BME280;1180;51.438;6.978;2023-03-25T09:01:04;99072.78;;;12.54;76.63
2339;BME280;1180;51.438;6.978;2023-03-25T09:03:29;99074.09;;;12.48;76.64
2339;BME280;1180;51.438;6.978;2023-03-25T09:05:55;99060.72;;;12.64;76.87
2339;BME280;1180;51.438;6.978;2023-03-25T09:08:20;99064.53;;;12.60;76.48
2339;BME280;1180;51.438;6.978;2023-03-25T09:10:46;99068.47;;;12.74;76.50
2339;BME280;1180;51.438;6.978;2023-03-25T09:13:12;99070.34;;;12.62;76.24
2339;BME280;1180;51.438;6.978;2023-03-25T09:15:37;99072.63;;;12.46;77.25
2339;BME280;1180;51.438;6.978;2023-03-25T09:18:02;99068.72;;;12.61;77.30
2339;BME280;1180;51.438;6.978;2023-03-25T09:20:29;99058.97;;;12.65;77.04
2339;BME280;1180;51.438;6.978;2023-03-25T09:22:54;99057.50;;;12.72;77.08
2339;BME280;1180;51.438;6.978;2023-03-25T09:25:20;99071.72;;;12.86;77.41
2339;BME280;1180;51.438;6.978;2023-03-25T09:27:45;99065.22;;;12.82;78.18
2339;BME280;1180;51.438;6.978;2023-03-25T09:30:11;99079.97;;;12.90;77.98
2339;BME280;1180;51.438;6.978;2023-03-25T09:32:36;99074.09;;;12.48;79.12
2339;BME280;1180;51.438;6.978;2023-03-25T09:35:02;99078.28;;;12.30;82.04
2339;BME280;1180;51.438;6.978;2023-03-25T09:37:27;99081.25;;;12.35;83.26
2339;BME280;1180;51.438;6.978;2023-03-25T09:39:53;99081.69;;;12.40;83.68
2339;BME280;1180;51.438;6.978;2023-03-25T09:44:55;99081.69;;;12.40;83.86
2339;BME280;1180;51.438;6.978;2023-03-25T09:47:23;99073.81;;;12.32;82.56
2339;BME280;1180;51.438;6.978;2023-03-25T09:49:54;99071.00;;;12.54;83.13
2339;BME280;1180;51.438;6.978;2023-03-25T09:52:27;99060.59;;;12.56;81.14
2339;BME280;1180;51.438;6.978;2023-03-25T09:55:15;99061.69;;;12.73;81.20
2339;BME280;1180;51.438;6.978;2023-03-25T09:57:46;99065.06;;;12.83;80.19
2339;BME280;1180;51.438;6.978;2023-03-25T10:00:18;99053.97;;;13.03;79.13
2339;BME280;1180;51.438;6.978;2023-03-25T10:03:06;99056.66;;;13.21;76.90
2339;BME280;1180;51.438;6.978;2023-03-25T10:06:09;99058.72;;;13.07;77.17
2339;BME280;1180;51.438;6.978;2023-03-25T10:14:21;99060.84;;;13.32;75.92
2339;BME280;1180;51.438;6.978;2023-03-25T10:19:47;99077.00;;;13.43;74.92
2339;BME280;1180;51.438;6.978;2023-03-25T10:25:28;99082.56;;;13.09;76.90
2339;BME280;1180;51.438;6.978;2023-03-25T10:27:56;99093.16;;;13.06;75.47
2339;BME280;1180;51.438;6.978;2023-03-25T10:30:23;99092.75;;;13.01;75.52
2339;BME280;1180;51.438;6.978;2023-03-25T10:32:58;99091.63;;;13.04;75.91
2339;BME280;1180;51.438;6.978;2023-03-25T10:35:31;99094.47;;;12.91;74.74
2339;BME280;1180;51.438;6.978;2023-03-25T10:38:06;99088.81;;;12.97;74.06
2339;BME280;1180;51.438;6.978;2023-03-25T10:40:38;99091.22;;;12.98;74.54
2339;BME280;1180;51.438;6.978;2023-03-25T10:43:23;99084.19;;;13.10;73.97
2339;BME280;1180;51.438;6.978;2023-03-25T10:45:53;99089.34;;;13.20;73.69
2339;BME280;1180;51.438;6.978;2023-03-25T10:48:26;99077.53;;;13.37;72.55
2339;BME280;1180;51.438;6.978;2023-03-25T10:51:11;99080.41;;;13.44;71.91
2339;BME280;1180;51.438;6.978;2023-03-25T10:53:41;99093.66;;;13.39;72.64
2339;BME280;1180;51.438;6.978;2023-03-25T10:56:18;99094.78;;;13.27;72.66
2339;BME280;1180;51.438;6.978;2023-03-25T10:58:50;99106.28;;;13.23;74.34
2339;BME280;1180;51.438;6.978;2023-03-25T11:01:37;99112.09;;;13.35;74.80
2339;BME280;1180;51.438;6.978;2023-03-25T11:04:06;99087.72;;;13.29;73.08
2339;BME280;1180;51.438;6.978;2023-03-25T11:06:36;99109.94;;;13.10;73.75
2339;BME280;1180;51.438;6.978;2023-03-25T11:11:34;99125.81;;;13.15;73.57
2339;BME280;1180;51.438;6.978;2023-03-25T11:14:00;99124.44;;;13.11;73.79
2339;BME280;1180;51.438;6.978;2023-03-25T11:16:31;99128.66;;;13.22;73.71
2339;BME280;1180;51.438;6.978;2023-03-25T11:18:59;99117.53;;;13.22;74.77
2339;BME280;1180;51.438;6.978;2023-03-25T11:21:29;99131.63;;;13.18;74.74
2339;BME280;1180;51.438;6.978;2023-03-25T11:23:57;99137.47;;;13.29;74.68
2339;BME280;1180;51.438;6.978;2023-03-25T11:26:27;99122.16;;;13.48;74.49
2339;BME280;1180;51.438;6.978;2023-03-25T11:29:03;99111.56;;;13.51;74.97
2339;BME280;1180;51.438;6.978;2023-03-25T11:31:35;99104.22;;;13.66;74.56
2339;BME280;1180;51.438;6.978;2023-03-25T11:34:18;99110.06;;;13.58;74.28
2339;BME280;1180;51.438;6.978;2023-03-25T11:36:52;99107.72;;;13.75;73.98
2339;BME280;1180;51.438;6.978;2023-03-25T11:41:47;99111.66;;;13.79;73.50
2339;BME280;1180;51.438;6.978;2023-03-25T11:44:30;99118.44;;;13.80;74.72
2339;BME280;1180;51.438;6.978;2023-03-25T11:47:00;99115.16;;;13.88;74.63
2339;BME280;1180;51.438;6.978;2023-03-25T11:49:28;99096.94;;;13.89;75.92
2339;BME280;1180;51.438;6.978;2023-03-25T11:51:58;99107.22;;;14.09;76.37
2339;BME280;1180;51.438;6.978;2023-03-25T11:54:26;99110.81;;;14.26;73.70
2339;BME280;1180;51.438;6.978;2023-03-25T11:56:53;99111.50;;;14.18;74.52
2339;BME280;1180;51.438;6.978;2023-03-25T11:59:27;99113.25;;;14.27;74.05
2339;BME280;1180;51.438;6.978;2023-03-25T12:02:01;99104.50;;;14.10;76.22
2339;BME280;1180;51.438;6.978;2023-03-25T12:04:27;99106.38;;;14.08;76.10
2339;BME280;1180;51.438;6.978;2023-03-25T12:07:00;99108.16;;;14.08;76.30
2339;BME280;1180;51.438;6.978;2023-03-25T12:09:28;99126.75;;;14.39;76.39
2339;BME280;1180;51.438;6.978;2023-03-25T12:22:59;99091.56;;;13.82;72.16
2339;BME280;1180;51.438;6.978;2023-03-25T12:42:00;99095.19;;;14.27;70.78
2339;BME280;1180;51.438;6.978;2023-03-25T12:44:38;99108.31;;;14.34;70.69
2339;BME280;1180;51.438;6.978;2023-03-25T12:52:15;99091.75;;;14.37;71.05
2339;BME280;1180;51.438;6.978;2023-03-25T13:05:20;99076.59;;;14.24;70.38
2339;BME280;1180;51.438;6.978;2023-03-25T13:07:53;99084.94;;;14.36;69.28
2339;BME280;1180;51.438;6.978;2023-03-25T13:10:22;99088.00;;;14.21;69.71
2339;BME280;1180;51.438;6.978;2023-03-25T13:20:53;99099.69;;;14.25;64.12
2339;BME280;1180;51.438;6.978;2023-03-25T13:23:23;99122.31;;;14.04;68.52
2339;BME280;1180;51.438;6.978;2023-03-25T13:25:58;99111.53;;;13.80;73.12
2339;BME280;1180;51.438;6.978;2023-03-25T13:28:30;99121.28;;;13.77;73.51
2339;BME280;1180;51.438;6.978;2023-03-25T13:31:05;99110.97;;;13.86;73.74
2339;BME280;1180;51.438;6.978;2023-03-25T13:33:36;99121.78;;;13.90;73.63
2339;BME280;1180;51.438;6.978;2023-03-25T13:38:48;99114.19;;;13.98;71.87
2339;BME280;1180;51.438;6.978;2023-03-25T13:41:25;99122.22;;;13.85;72.25
2339;BME280;1180;51.438;6.978;2023-03-25T13:46:43;99101.28;;;13.98;72.16
2339;BME280;1180;51.438;6.978;2023-03-25T13:49:17;99116.41;;;13.83;72.16
2339;BME280;1180;51.438;6.978;2023-03-25T13:51:46;99108.28;;;13.78;73.17
2339;BME280;1180;51.438;6.978;2023-03-25T13:54:22;99117.47;;;13.91;73.60
2339;BME280;1180;51.438;6.978;2023-03-25T14:03:18;99121.41;;;13.75;73.16
2339;BME280;1180;51.438;6.978;2023-03-25T14:13:58;99134.06;;;13.68;76.10
2339;BME280;1180;51.438;6.978;2023-03-25T14:16:32;99134.56;;;13.82;75.23
2339;BME280;1180;51.438;6.978;2023-03-25T14:19:10;99128.91;;;13.78;75.63
2339;BME280;1180;51.438;6.978;2023-03-25T14:24:11;99136.94;;;13.65;79.29
2339;BME280;1180;51.438;6.978;2023-03-25T14:26:45;99149.00;;;13.55;81.65
2339;BME280;1180;51.438;6.978;2023-03-25T14:29:28;99153.34;;;13.54;82.57
2339;BME280;1180;51.438;6.978;2023-03-25T14:32:01;99164.97;;;13.39;84.37
2339;BME280;1180;51.438;6.978;2023-03-25T14:34:27;99200.78;;;13.12;87.94
2339;BME280;1180;51.438;6.978;2023-03-25T14:44:34;99146.06;;;12.19;91.49
2339;BME280;1180;51.438;6.978;2023-03-25T14:55:08;99135.94;;;12.68;93.28
2339;BME280;1180;51.438;6.978;2023-03-25T14:57:39;99140.81;;;12.71;93.30
2339;BME280;1180;51.438;6.978;2023-03-25T15:00:07;99149.88;;;12.75;92.41
2339;BME280;1180;51.438;6.978;2023-03-25T15:02:43;99156.25;;;12.71;92.34
2339;BME280;1180;51.438;6.978;2023-03-25T15:05:23;99162.19;;;12.71;93.69
2339;BME280;1180;51.438;6.978;2023-03-25T15:07:58;99153.69;;;12.71;92.96
2339;BME280;1180;51.438;6.978;2023-03-25T15:13:00;99160.56;;;12.61;93.85
2339;BME280;1180;51.438;6.978;2023-03-25T15:15:33;99157.41;;;12.47;95.02
2339;BME280;1180;51.438;6.978;2023-03-25T15:21:11;99163.91;;;12.51;95.26
2339;BME280;1180;51.438;6.978;2023-03-25T15:26:12;99147.09;;;12.47;96.14
2339;BME280;1180;51.438;6.978;2023-03-25T15:49:07;99138.00;;;13.53;91.67
2339;BME280;1180;51.438;6.978;2023-03-25T15:56:47;99155.91;;;13.35;87.34
2339;BME280;1180;51.438;6.978;2023-03-25T16:01:43;99134.06;;;12.99;88.56
2339;BME280;1180;51.438;6.978;2023-03-25T16:04:15;99138.94;;;13.03;88.23
2339;BME280;1180;51.438;6.978;2023-03-25T16:06:44;99137.81;;;12.76;88.94
2339;BME280;1180;51.438;6.978;2023-03-25T16:09:15;99141.63;;;12.81;90.53
2339;BME280;1180;51.438;6.978;2023-03-25T16:11:44;99145.19;;;13.20;89.91
2339;BME280;1180;51.438;6.978;2023-03-25T16:16:39;99147.91;;;13.77;86.67
2339;BME280;1180;51.438;6.978;2023-03-25T16:19:12;99151.72;;;14.11;85.48
2339;BME280;1180;51.438;6.978;2023-03-25T16:21:39;99151.88;;;14.09;83.53
2339;BME280;1180;51.438;6.978;2023-03-25T16:24:06;99144.09;;;13.71;83.54
2339;BME280;1180;51.438;6.978;2023-03-25T16:26:51;99156.09;;;13.43;84.59
2339;BME280;1180;51.438;6.978;2023-03-25T16:29:24;99149.78;;;13.36;85.39
2339;BME280;1180;51.438;6.978;2023-03-25T16:31:54;99152.13;;;13.29;85.62
2339;BME280;1180;51.438;6.978;2023-03-25T16:34:20;99156.31;;;13.30;86.57
2339;BME280;1180;51.438;6.978;2023-03-25T16:36:48;99158.22;;;13.28;86.07
2339;BME280;1180;51.438;6.978;2023-03-25T16:39:15;99166.06;;;13.26;86.52